Time;durP1;ratioP1;P1;durP2;ratioP2;P2;SDS_P1;SDS_P2;PMS_P1;PMS_P2;Temp;Humidity;BMP_temperature;BMP_pressure;BME280_temperature;BME280_humidity;BME280_pressure;Samples;Min_cycle;Max_cycle;Signal;HPM_P1;HPM_P2
2023/08/04 00:00:06;;;;;;;13.75;4.90;;;;;;;14.44;100.00;100945.53;5030599;28;20029;-73
2023/08/04 00:02:31;;;;;;;14.38;4.53;;;;;;;14.43;100.00;100939.31;5030958;28;20037;-73
2023/08/04 00:04:56;;;;;;;14.57;4.45;;;;;;;14.44;100.00;100937.50;5030698;28;20032;-73
2023/08/04 00:07:22;;;;;;;15.68;6.05;;;;;;;14.41;100.00;100938.75;5030493;28;20053;-73
2023/08/04 00:09:47;;;;;;;12.18;6.20;;;;;;;14.43;100.00;100942.00;5046193;28;20033;-73
2023/08/04 00:12:12;;;;;;;16.13;5.07;;;;;;;14.40;100.00;100933.59;5030831;28;20032;-73
2023/08/04 00:14:39;;;;;;;13.88;4.82;;;;;;;14.38;100.00;100944.56;5029966;28;20057;-73
2023/08/04 00:17:04;;;;;;;10.80;4.97;;;;;;;14.36;100.00;100949.31;5030235;28;20170;-73
2023/08/04 00:19:29;;;;;;;12.55;4.97;;;;;;;14.31;100.00;100937.59;5030462;28;20033;-73
2023/08/04 00:21:55;;;;;;;10.38;4.72;;;;;;;14.30;100.00;100944.81;5030771;28;20219;-73
2023/08/04 00:24:21;;;;;;;11.85;5.53;;;;;;;14.30;100.00;100950.16;5030582;28;20079;-73
2023/08/04 00:26:46;;;;;;;12.98;4.82;;;;;;;14.28;100.00;100956.78;5029889;28;20040;-73
2023/08/04 00:29:11;;;;;;;11.52;4.88;;;;;;;14.22;100.00;100951.25;5029464;28;20028;-73
2023/08/04 00:31:37;;;;;;;15.00;4.82;;;;;;;14.22;100.00;100953.13;5030408;28;20033;-73
2023/08/04 00:34:02;;;;;;;12.80;4.88;;;;;;;14.22;100.00;100958.50;5030600;28;20042;-73
2023/08/04 00:36:27;;;;;;;15.15;4.72;;;;;;;14.19;100.00;100956.25;5029511;28;20032;-73
2023/08/04 00:38:53;;;;;;;18.80;6.03;;;;;;;14.13;100.00;100952.59;5030163;28;20176;-73
2023/08/04 00:41:18;;;;;;;19.08;6.38;;;;;;;14.14;100.00;100964.94;5028730;28;20041;-73
2023/08/04 00:43:43;;;;;;;13.85;5.25;;;;;;;14.15;100.00;100968.47;5028995;28;20049;-73
2023/08/04 00:46:09;;;;;;;9.02;4.05;;;;;;;14.12;100.00;100972.41;5029513;28;20029;-73
2023/08/04 00:48:35;;;;;;;18.35;4.55;;;;;;;14.09;100.00;100967.47;5029910;28;20029;-73
2023/08/04 00:51:01;;;;;;;12.68;4.30;;;;;;;14.06;100.00;100961.72;5030040;28;20029;-73
2023/08/04 00:53:27;;;;;;;12.48;6.00;;;;;;;14.05;100.00;100970.81;5029578;28;20124;-73
2023/08/04 00:55:53;;;;;;;12.60;4.78;;;;;;;14.03;100.00;100971.00;5029633;28;20060;-73
2023/08/04 00:58:19;;;;;;;13.05;6.00;;;;;;;14.03;100.00;100987.09;5044323;28;20076;-72
2023/08/04 01:00:44;;;;;;;13.52;4.93;;;;;;;14.00;100.00;100977.63;5030056;28;20036;-73
2023/08/04 01:03:10;;;;;;;14.77;4.20;;;;;;;14.02;100.00;100983.59;5045298;28;20033;-73
2023/08/04 01:05:54;;;;;;;14.95;5.55;;;;;;;14.05;100.00;100984.22;5029164;28;20035;-73
2023/08/04 01:08:25;;;;;;;16.08;6.00;;;;;;;14.02;100.00;100983.59;5027975;28;20037;-73
2023/08/04 01:11:15;;;;;;;12.57;4.63;;;;;;;14.03;100.00;100981.75;5029654;28;20116;-72
2023/08/04 01:13:42;;;;;;;15.55;4.97;;;;;;;14.01;100.00;100989.19;5029426;28;20283;-73
2023/08/04 01:16:08;;;;;;;10.65;4.82;;;;;;;14.01;100.00;100992.66;5029034;28;20144;-73
2023/08/04 01:18:34;;;;;;;15.55;5.15;;;;;;;14.01;100.00;100998.03;5029159;28;20052;-73
2023/08/04 01:21:04;;;;;;;18.00;6.28;;;;;;;14.03;100.00;100992.47;5029745;28;20067;-73
2023/08/04 01:23:29;;;;;;;13.18;6.10;;;;;;;14.00;100.00;100991.03;5029536;28;20065;-73
2023/08/04 01:25:55;;;;;;;16.25;5.35;;;;;;;14.02;100.00;100991.66;5029041;28;20112;-73
2023/08/04 01:28:21;;;;;;;13.52;5.10;;;;;;;14.02;100.00;100999.69;5028466;28;20120;-73
2023/08/04 01:30:50;;;;;;;15.40;5.40;;;;;;;14.01;100.00;100999.91;5029179;28;20087;-73
2023/08/04 01:33:16;;;;;;;10.55;5.65;;;;;;;14.03;100.00;101001.34;5029242;28;20079;-73
2023/08/04 01:35:42;;;;;;;16.30;4.88;;;;;;;14.02;100.00;101002.38;5028925;28;20037;-73
2023/08/04 01:38:12;;;;;;;16.45;6.25;;;;;;;14.04;100.00;101007.50;5028895;28;20436;-73
2023/08/04 01:40:37;;;;;;;13.30;4.63;;;;;;;14.02;100.00;100997.03;5029071;28;20056;-73
2023/08/04 01:43:06;;;;;;;13.55;5.75;;;;;;;14.04;100.00;101007.50;5028721;28;20476;-73
2023/08/04 01:45:31;;;;;;;12.35;5.22;;;;;;;14.03;100.00;101012.06;5028565;28;20033;-73
2023/08/04 01:47:56;;;;;;;13.00;4.68;;;;;;;14.01;100.00;101006.09;5027402;28;20025;-73
2023/08/04 01:50:22;;;;;;;12.60;4.28;;;;;;;14.05;100.00;101008.34;5027689;28;20080;-73
2023/08/04 01:52:47;;;;;;;19.85;6.55;;;;;;;14.03;100.00;101001.34;5028832;28;20768;-73
2023/08/04 01:55:13;;;;;;;13.73;4.88;;;;;;;14.05;100.00;101014.53;5028321;28;20106;-73
2023/08/04 01:57:38;;;;;;;12.43;6.22;;;;;;;14.03;100.00;101004.00;5026731;28;20104;-73
2023/08/04 02:00:05;;;;;;;16.90;6.32;;;;;;;14.02;100.00;101005.06;5028583;28;20120;-73
2023/08/04 02:02:30;;;;;;;13.43;6.43;;;;;;;14.07;100.00;101008.94;5028679;28;20650;-73
2023/08/04 02:04:56;;;;;;;15.13;6.22;;;;;;;14.01;100.00;100992.66;5028878;28;20568;-73
2023/08/04 02:07:21;;;;;;;16.00;5.68;;;;;;;14.06;100.00;101008.13;5027975;28;20029;-73
2023/08/04 02:09:46;;;;;;;10.75;4.88;;;;;;;14.04;100.00;101010.19;5028594;28;20029;-73
2023/08/04 02:12:12;;;;;;;11.95;6.28;;;;;;;13.99;100.00;101008.19;5028850;28;20053;-74
2023/08/04 02:14:37;;;;;;;11.35;5.72;;;;;;;13.96;100.00;101016.66;5028488;28;20409;-73
2023/08/04 02:17:02;;;;;;;12.38;4.97;;;;;;;13.90;100.00;101022.03;5028028;28;20410;-73
2023/08/04 02:19:28;;;;;;;16.15;7.15;;;;;;;13.86;100.00;101008.25;5028305;28;20649;-73
2023/08/04 02:21:53;;;;;;;15.57;5.20;;;;;;;13.87;100.00;101014.44;5027903;28;20469;-73
2023/08/04 02:24:19;;;;;;;12.98;6.32;;;;;;;13.78;100.00;101014.69;5028922;28;20041;-73
2023/08/04 02:26:44;;;;;;;11.98;5.05;;;;;;;13.80;100.00;101019.81;5027831;28;20025;-73
2023/08/04 02:29:11;;;;;;;13.43;5.55;;;;;;;13.73;100.00;101013.69;5028017;28;20030;-73
2023/08/04 02:31:37;;;;;;;12.98;5.32;;;;;;;13.71;100.00;101021.13;5028063;28;20079;-73
2023/08/04 02:34:02;;;;;;;19.80;5.88;;;;;;;13.72;100.00;101022.75;5043629;28;20033;-73
2023/08/04 02:36:28;;;;;;;16.48;5.75;;;;;;;13.67;100.00;101022.56;5027663;28;20048;-73
2023/08/04 02:38:54;;;;;;;16.17;6.90;;;;;;;13.61;100.00;101023.41;5028397;28;20544;-73
2023/08/04 02:41:19;;;;;;;11.10;5.35;;;;;;;13.62;100.00;101023.19;5028559;28;20033;-73
2023/08/04 02:43:44;;;;;;;16.17;6.68;;;;;;;13.60;100.00;101027.97;5043435;28;20116;-73
2023/08/04 02:46:10;;;;;;;15.40;6.47;;;;;;;13.61;100.00;101026.91;5028108;28;20040;-73
2023/08/04 02:48:36;;;;;;;15.27;5.38;;;;;;;13.53;100.00;101013.75;5028100;28;20627;-73
2023/08/04 02:51:04;;;;;;;11.50;5.25;;;;;;;13.62;100.00;101030.41;5028392;28;20052;-73
2023/08/04 02:53:31;;;;;;;14.00;5.53;;;;;;;13.61;100.00;101032.28;5028358;28;20389;-73
2023/08/04 02:55:57;;;;;;;14.25;6.35;;;;;;;13.62;100.00;101031.22;5027534;28;20108;-73
2023/08/04 02:58:23;;;;;;;20.35;7.38;;;;;;;13.65;100.00;101029.97;5027612;28;20029;-73
2023/08/04 03:00:49;;;;;;;11.90;5.05;;;;;;;13.70;100.00;101035.53;5028421;28;20075;-73
2023/08/04 03:03:15;;;;;;;15.15;5.40;;;;;;;13.69;100.00;101031.22;5028282;28;20037;-73
2023/08/04 03:05:40;;;;;;;13.80;6.10;;;;;;;13.70;100.00;101033.69;5043097;28;20553;-73
2023/08/04 03:08:06;;;;;;;12.95;6.35;;;;;;;13.73;100.00;101037.81;5027394;28;20041;-73
2023/08/04 03:10:31;;;;;;;9.90;5.22;;;;;;;13.74;100.00;101031.41;5028276;28;20033;-73
2023/08/04 03:12:56;;;;;;;12.48;5.30;;;;;;;13.74;100.00;101039.44;5028448;28;20092;-73
2023/08/04 03:15:22;;;;;;;16.02;6.57;;;;;;;13.75;100.00;101036.56;5042824;28;20088;-73
2023/08/04 03:17:47;;;;;;;19.60;7.03;;;;;;;13.75;100.00;101038.41;5027552;28;20093;-73
2023/08/04 03:20:12;;;;;;;14.27;6.35;;;;;;;13.74;100.00;101034.09;5027972;28;20103;-73
2023/08/04 03:22:38;;;;;;;13.95;7.07;;;;;;;13.78;100.00;101043.31;5028189;28;20116;-73
2023/08/04 03:25:04;;;;;;;14.10;5.95;;;;;;;13.78;100.00;101032.59;5043426;28;20496;-73
2023/08/04 03:27:29;;;;;;;14.55;6.32;;;;;;;13.80;100.00;101042.06;5027549;28;20175;-73
2023/08/04 03:29:54;;;;;;;11.70;6.18;;;;;;;13.80;100.00;101047.44;5043049;28;20112;-73
2023/08/04 03:32:20;;;;;;;16.95;5.55;;;;;;;13.81;100.00;101042.94;5028045;28;20654;-73
2023/08/04 03:34:45;;;;;;;15.20;5.90;;;;;;;13.84;100.00;101045.19;5030173;28;20040;-73
2023/08/04 03:37:10;;;;;;;15.30;6.20;;;;;;;13.87;100.00;101046.59;5046158;28;20034;-73
2023/08/04 03:39:36;;;;;;;21.15;7.00;;;;;;;13.86;100.00;101043.09;5029887;28;20033;-73
2023/08/04 03:42:01;;;;;;;16.45;5.82;;;;;;;13.89;100.00;101048.03;5031570;28;20029;-73
2023/08/04 03:44:27;;;;;;;13.75;5.10;;;;;;;13.84;100.00;101039.81;5031360;28;20025;-73
2023/08/04 03:46:52;;;;;;;13.02;5.53;;;;;;;13.89;100.00;101044.53;5030479;28;20037;-73
2023/08/04 03:49:17;;;;;;;17.95;6.63;;;;;;;13.91;100.00;101048.66;5046727;28;20032;-73
2023/08/04 03:51:43;;;;;;;15.45;6.93;;;;;;;13.94;100.00;101050.91;5031239;28;20060;-73
2023/08/04 03:54:08;;;;;;;12.88;5.57;;;;;;;13.94;100.00;101050.91;5031212;28;20543;-73
2023/08/04 03:56:33;;;;;;;19.40;6.15;;;;;;;13.91;100.00;101050.50;5030410;28;20083;-73
2023/08/04 03:58:59;;;;;;;21.70;5.63;;;;;;;13.92;100.00;101058.34;5017056;28;20057;-73
2023/08/04 04:01:24;;;;;;;14.68;6.60;;;;;;;13.90;100.00;101054.22;5046400;28;20081;-73
2023/08/04 04:03:49;;;;;;;15.10;6.00;;;;;;;13.91;100.00;101056.69;5029734;28;20068;-73
2023/08/04 04:06:16;;;;;;;17.10;6.38;;;;;;;13.91;100.00;101055.84;5030224;28;20057;-73
2023/08/04 04:08:41;;;;;;;15.13;6.95;;;;;;;13.90;100.00;101055.03;5030179;28;20033;-73
2023/08/04 04:11:08;;;;;;;12.13;5.82;;;;;;;13.88;100.00;101059.78;5029407;28;20535;-73
2023/08/04 04:13:34;;;;;;;11.85;5.28;;;;;;;13.86;100.00;101061.88;5029476;28;20061;-73
2023/08/04 04:15:59;;;;;;;14.45;5.80;;;;;;;13.88;100.00;101056.28;5029101;28;20132;-73
2023/08/04 04:18:24;;;;;;;13.07;6.30;;;;;;;13.90;100.00;101063.09;5029503;28;20033;-73
2023/08/04 04:20:50;;;;;;;12.05;4.80;;;;;;;13.90;100.00;101060.41;5029943;28;20034;-73
2023/08/04 04:23:15;;;;;;;15.93;6.57;;;;;;;13.88;100.00;101064.31;5030112;28;20029;-73
2023/08/04 04:25:41;;;;;;;13.10;5.97;;;;;;;13.84;100.00;101063.13;5030610;28;20029;-73
2023/08/04 04:28:06;;;;;;;16.80;5.78;;;;;;;13.88;100.00;101069.69;5028363;28;20032;-73
2023/08/04 04:30:31;;;;;;;13.55;6.07;;;;;;;13.93;100.00;101076.06;5029792;28;20044;-73
2023/08/04 04:32:57;;;;;;;15.77;6.80;;;;;;;13.94;100.00;101082.28;5029188;28;20040;-73
2023/08/04 04:35:22;;;;;;;17.02;5.88;;;;;;;13.96;100.00;101083.69;5028952;28;20068;-73
2023/08/04 04:37:47;;;;;;;14.68;6.07;;;;;;;13.93;100.00;101075.25;5028699;28;20091;-73
2023/08/04 04:40:13;;;;;;;13.25;6.78;;;;;;;13.95;100.00;101090.09;5045659;28;20030;-73
2023/08/04 04:42:38;;;;;;;10.23;5.43;;;;;;;13.98;100.00;101089.66;5030209;28;20035;-73
2023/08/04 04:45:04;;;;;;;13.82;5.28;;;;;;;13.93;100.00;101094.81;5029612;28;20029;-73
2023/08/04 04:47:29;;;;;;;15.20;5.15;;;;;;;13.94;100.00;101096.50;5044703;28;20053;-73
2023/08/04 04:49:55;;;;;;;16.15;6.13;;;;;;;13.95;100.00;101089.25;5030118;28;20056;-73
2023/08/04 04:52:32;;;;;;;13.85;6.50;;;;;;;13.96;100.00;101089.06;5028562;28;20025;-73
2023/08/04 04:54:59;;;;;;;12.93;7.07;;;;;;;13.95;100.00;101092.75;5029791;28;20109;-73
2023/08/04 04:57:26;;;;;;;12.00;5.10;;;;;;;13.94;100.00;101088.44;5029311;28;20083;-73
2023/08/04 04:59:52;;;;;;;16.98;7.25;;;;;;;13.95;100.00;101092.75;5029029;28;20103;-73
2023/08/04 05:02:17;;;;;;;14.73;6.63;;;;;;;14.00;100.00;101097.50;5030333;28;20473;-73
2023/08/04 05:04:43;;;;;;;19.70;6.60;;;;;;;14.00;100.00;101100.19;5030428;28;20060;-73
2023/08/04 05:07:09;;;;;;;13.15;5.65;;;;;;;14.01;100.00;101094.59;5028425;28;20033;-73
2023/08/04 05:09:34;;;;;;;12.65;5.97;;;;;;;14.03;100.00;101100.56;5045768;28;20040;-73
2023/08/04 05:11:59;;;;;;;12.77;5.70;;;;;;;14.06;100.00;101099.31;5044892;28;20041;-74
2023/08/04 05:14:25;;;;;;;11.77;5.22;;;;;;;14.06;100.00;101103.84;5030098;28;20049;-73
2023/08/04 05:16:50;;;;;;;16.33;6.22;;;;;;;14.12;100.00;101113.72;5045117;28;20061;-73
2023/08/04 05:19:16;;;;;;;12.43;6.00;;;;;;;14.14;100.00;101114.34;5030122;28;20427;-73
2023/08/04 05:21:41;;;;;;;16.35;7.15;;;;;;;14.15;100.00;101113.31;5030047;28;20068;-73
2023/08/04 05:24:06;;;;;;;10.45;4.70;;;;;;;14.15;100.00;101113.31;5029699;28;20033;-73
2023/08/04 05:26:32;;;;;;;13.75;6.38;;;;;;;14.15;100.00;101119.50;5044982;28;20065;-73
2023/08/04 05:28:57;;;;;;;14.82;5.45;;;;;;;14.24;100.00;101130.81;5027877;28;20033;-73
2023/08/04 05:31:22;;;;;;;14.40;5.88;;;;;;;14.20;100.00;101114.31;5028421;28;20638;-74
2023/08/04 05:33:48;;;;;;;11.20;5.68;;;;;;;14.27;100.00;101121.50;5029939;28;20066;-73
2023/08/04 05:36:13;;;;;;;17.15;6.80;;;;;;;14.25;100.00;101124.38;5029519;28;20044;-74
2023/08/04 05:38:39;;;;;;;15.55;6.05;;;;;;;14.33;100.00;101121.47;5029414;28;20033;-73
2023/08/04 05:41:05;;;;;;;12.45;5.47;;;;;;;14.49;100.00;101128.19;5029741;28;20036;-73
2023/08/04 05:43:30;;;;;;;12.43;5.38;;;;;;;14.57;100.00;101127.16;5029595;28;20063;-73
2023/08/04 05:46:02;;;;;;;12.73;6.10;;;;;;;14.80;100.00;101137.31;5029387;28;20033;-73
2023/08/04 05:48:32;;;;;;;14.98;6.85;;;;;;;14.88;100.00;101140.56;5028608;28;20500;-73
2023/08/04 05:50:58;;;;;;;15.27;6.40;;;;;;;14.92;100.00;101140.13;5029041;28;20084;-73
2023/08/04 05:53:24;;;;;;;14.77;6.25;;;;;;;14.94;100.00;101146.94;5029321;28;20029;-73
2023/08/04 05:55:49;;;;;;;17.35;5.53;;;;;;;14.90;100.00;101149.19;5028627;28;20384;-73
2023/08/04 05:58:14;;;;;;;14.63;5.57;;;;;;;14.91;100.00;101152.75;5028059;28;20029;-73
2023/08/04 06:00:40;;;;;;;12.15;5.57;;;;;;;14.90;100.00;101153.75;5029254;28;20083;-73
2023/08/04 06:03:05;;;;;;;13.75;6.70;;;;;;;14.83;100.00;101143.09;5029000;28;20143;-73
2023/08/04 06:05:31;;;;;;;14.05;5.90;;;;;;;14.90;100.00;101165.31;5029120;28;20064;-73
2023/08/04 06:07:56;;;;;;;14.43;6.40;;;;;;;14.90;100.00;101161.81;5043820;28;20542;-73
2023/08/04 06:10:21;;;;;;;16.58;6.55;;;;;;;14.94;100.00;101168.41;5029323;28;20033;-73
2023/08/04 06:12:47;;;;;;;14.10;5.68;;;;;;;15.00;100.00;101166.72;5029045;28;20033;-73
2023/08/04 06:15:13;;;;;;;14.85;6.80;;;;;;;15.02;100.00;101161.94;5028414;28;20099;-73
2023/08/04 06:17:39;;;;;;;14.70;6.22;;;;;;;15.06;100.00;101169.38;5028491;28;20083;-73
2023/08/04 06:20:05;;;;;;;14.50;6.85;;;;;;;15.08;100.00;101175.31;5029048;28;20036;-73
2023/08/04 06:22:30;;;;;;;20.30;7.57;;;;;;;15.11;100.00;101172.19;5028455;28;20114;-75
2023/08/04 06:24:56;;;;;;;16.75;7.47;;;;;;;15.17;100.00;101175.03;5027959;28;20661;-73
2023/08/04 06:27:21;;;;;;;13.13;6.15;;;;;;;15.18;100.00;101176.72;5027351;28;20029;-74
2023/08/04 06:29:47;;;;;;;19.15;7.55;;;;;;;15.28;100.00;101185.09;5025812;28;20504;-72
2023/08/04 06:32:12;;;;;;;17.27;7.65;;;;;;;15.41;100.00;101179.59;5027119;28;20033;-72
2023/08/04 06:34:38;;;;;;;14.38;6.85;;;;;;;15.54;100.00;101184.03;5027359;28;20036;-72
2023/08/04 06:37:04;;;;;;;18.70;8.55;;;;;;;15.61;100.00;101186.66;5026707;28;20049;-72
2023/08/04 06:39:29;;;;;;;20.85;7.47;;;;;;;15.77;100.00;101192.31;5026413;28;20431;-73
2023/08/04 06:41:55;;;;;;;13.52;6.28;;;;;;;15.90;100.00;101190.53;5027420;28;20025;-73
2023/08/04 06:44:20;;;;;;;17.45;6.57;;;;;;;15.90;100.00;101202.13;5042739;28;20488;-71
2023/08/04 06:46:45;;;;;;;14.30;5.78;;;;;;;15.93;100.00;101203.56;5041903;28;20041;-71
2023/08/04 06:49:11;;;;;;;19.30;7.85;;;;;;;15.98;100.00;101203.66;5027193;28;20086;-70
2023/08/04 06:51:36;;;;;;;13.20;5.75;;;;;;;16.12;100.00;101196.28;5026795;28;20119;-71
2023/08/04 06:54:01;;;;;;;16.10;6.07;;;;;;;16.26;100.00;101205.84;5026904;28;20477;-71
2023/08/04 06:56:27;;;;;;;13.13;5.35;;;;;;;16.38;100.00;101197.84;5026687;28;20029;-71
2023/08/04 06:58:52;;;;;;;15.10;5.90;;;;;;;16.47;100.00;101206.41;5026875;28;20041;-72
2023/08/04 07:01:18;;;;;;;13.43;6.40;;;;;;;16.52;100.00;101211.94;5026863;28;20014;-71
2023/08/04 07:03:45;;;;;;;14.27;5.50;;;;;;;16.59;100.00;101215.38;5026807;28;20034;-72
2023/08/04 07:06:10;;;;;;;11.70;4.30;;;;;;;16.62;100.00;101214.91;5026809;28;20025;-73
2023/08/04 07:08:36;;;;;;;11.98;6.18;;;;;;;16.60;100.00;101223.22;5029299;28;20499;-73
2023/08/04 07:11:01;;;;;;;12.73;5.43;;;;;;;16.62;100.00;101212.22;5030495;28;20579;-71
2023/08/04 07:13:29;;;;;;;11.48;5.78;;;;;;;16.64;100.00;101219.03;5031086;28;20095;-72
2023/08/04 07:15:56;;;;;;;9.77;3.70;;;;;;;16.69;100.00;101214.81;5029401;28;20111;-73
2023/08/04 07:18:21;;;;;;;8.20;3.70;;;;;;;16.72;100.00;101215.19;5030125;28;20041;-69
2023/08/04 07:20:47;;;;;;;7.80;3.65;;;;;;;16.76;100.00;101218.25;5030488;28;20487;-70
2023/08/04 07:23:12;;;;;;;5.75;3.55;;;;;;;16.78;100.00;101221.56;5030561;28;20025;-70
2023/08/04 07:25:38;;;;;;;10.75;3.22;;;;;;;16.80;100.00;101232.94;5030322;28;20044;-72
2023/08/04 07:28:03;;;;;;;6.63;2.50;;;;;;;16.82;100.00;101236.22;5029555;28;20503;-71
2023/08/04 07:30:30;;;;;;;7.60;3.10;;;;;;;16.83;100.00;101230.59;5030571;28;20061;-71
2023/08/04 07:32:55;;;;;;;6.65;3.05;;;;;;;16.81;100.00;101229.19;5030889;28;20036;-71
2023/08/04 07:35:20;;;;;;;7.20;2.70;;;;;;;16.82;100.00;101230.81;5030167;28;20041;-72
2023/08/04 07:37:46;;;;;;;9.80;3.35;;;;;;;16.86;100.00;101230.13;5029434;28;20029;-71
2023/08/04 07:40:12;;;;;;;8.15;3.22;;;;;;;16.90;100.00;101224.28;5029964;28;20033;-69
2023/08/04 07:42:37;;;;;;;5.05;2.53;;;;;;;17.00;100.00;101240.72;5030108;28;20999;-71
2023/08/04 07:45:03;;;;;;;7.05;3.45;;;;;;;17.15;100.00;101229.53;5045168;28;20113;-72
2023/08/04 07:47:28;;;;;;;11.50;4.10;;;;;;;17.22;100.00;101228.38;5029586;28;20053;-71
2023/08/04 07:49:53;;;;;;;4.97;2.92;;;;;;;17.32;100.00;101241.28;5029821;28;20488;-70
2023/08/04 07:52:19;;;;;;;6.63;2.83;;;;;;;17.40;100.00;101240.94;5028866;28;20029;-72
2023/08/04 07:54:44;;;;;;;9.48;4.00;;;;;;;17.40;100.00;101240.13;5029773;28;20036;-72
2023/08/04 07:57:10;;;;;;;9.52;3.55;;;;;;;17.48;100.00;101248.69;5029567;28;20048;-71
2023/08/04 07:59:35;;;;;;;8.02;2.78;;;;;;;17.54;100.00;101246.94;5044648;28;20039;-71
2023/08/04 08:02:00;;;;;;;8.43;3.63;;;;;;;17.61;100.00;101253.06;5045287;28;20064;-70
2023/08/04 08:04:26;;;;;;;7.82;3.13;;;;;;;17.60;100.00;101247.88;5030744;28;20044;-71
2023/08/04 08:06:51;;;;;;;5.57;2.83;;;;;;;17.70;100.00;101257.03;5046188;28;20025;-72
2023/08/04 08:09:16;;;;;;;9.10;3.20;;;;;;;17.82;100.00;101265.16;5030850;28;20069;-72
2023/08/04 08:11:42;;;;;;;8.45;2.40;;;;;;;17.94;100.00;101255.16;5031393;28;20072;-69
2023/08/04 08:14:07;;;;;;;5.45;3.00;;;;;;;18.08;100.00;101250.38;5025851;28;20056;-71
2023/08/04 08:16:32;;;;;;;7.47;2.80;;;;;;;18.23;100.00;101262.53;5024657;28;20099;-70
2023/08/04 08:18:58;;;;;;;5.18;2.78;;;;;;;18.34;100.00;101259.84;5025028;28;20041;-70
2023/08/04 08:21:23;;;;;;;4.97;2.35;;;;;;;18.55;100.00;101261.06;5025925;28;20064;-71
2023/08/04 08:23:49;;;;;;;7.07;2.25;;;;;;;18.70;100.00;101255.13;5024776;28;20124;-70
2023/08/04 08:26:14;;;;;;;4.57;1.92;;;;;;;18.81;100.00;101262.41;5024944;28;20048;-72
2023/08/04 08:28:39;;;;;;;6.20;2.53;;;;;;;18.80;100.00;101265.34;5024428;28;20036;-72
2023/08/04 08:31:05;;;;;;;7.90;3.53;;;;;;;18.89;100.00;101271.19;5025209;28;20029;-72
2023/08/04 08:33:30;;;;;;;5.38;2.22;;;;;;;19.43;100.00;101271.59;5025569;28;20151;-72
2023/08/04 08:35:56;;;;;;;4.10;2.55;;;;;;;19.95;97.52;101278.66;5025325;28;20723;-73
2023/08/04 08:38:21;;;;;;;3.60;2.25;;;;;;;20.08;93.59;101284.53;5024543;28;20119;-72
2023/08/04 08:40:51;;;;;;;4.38;2.30;;;;;;;20.25;92.32;101283.66;5025272;28;20029;-70
2023/08/04 08:43:16;;;;;;;4.35;2.38;;;;;;;20.47;89.43;101289.13;5024835;28;20059;-71
2023/08/04 08:45:44;;;;;;;5.45;2.55;;;;;;;20.43;88.48;101280.66;5024866;28;20057;-71
2023/08/04 08:48:10;;;;;;;4.38;2.13;;;;;;;20.45;91.58;101294.78;5024541;28;20029;-69
2023/08/04 08:50:38;;;;;;;3.22;2.03;;;;;;;20.55;90.76;101289.50;5025383;28;20061;-69
2023/08/04 08:53:04;;;;;;;3.10;1.83;;;;;;;20.09;90.36;101301.59;5024952;28;20499;-71
2023/08/04 08:55:30;;;;;;;5.00;3.08;;;;;;;19.54;96.12;101300.44;5024658;28;20030;-71
2023/08/04 08:57:58;;;;;;;3.03;2.13;;;;;;;19.03;99.59;101292.28;5023277;28;20048;-72
2023/08/04 09:00:24;;;;;;;5.95;1.92;;;;;;;18.71;100.00;101301.91;5025333;28;20333;-72
2023/08/04 09:02:49;;;;;;;7.47;3.03;;;;;;;18.49;100.00;101301.72;5025026;28;20538;-72
2023/08/04 09:05:16;;;;;;;6.93;3.17;;;;;;;18.38;100.00;101300.69;5024509;28;20028;-72
2023/08/04 09:07:42;;;;;;;9.90;3.63;;;;;;;18.37;100.00;101299.03;5024761;28;20036;-72
2023/08/04 09:10:08;;;;;;;5.78;2.95;;;;;;;18.47;100.00;101295.72;5023660;28;20026;-72
2023/08/04 09:12:34;;;;;;;3.58;2.50;;;;;;;18.57;100.00;101302.16;5025112;28;20029;-72
2023/08/04 09:15:01;;;;;;;7.10;2.75;;;;;;;18.60;100.00;101303.56;5024374;28;20593;-72
2023/08/04 09:17:32;;;;;;;5.55;2.58;;;;;;;18.64;100.00;101312.03;5023056;28;20057;-71
2023/08/04 09:19:59;;;;;;;5.78;2.38;;;;;;;18.64;100.00;101299.31;5024572;28;20048;-71
2023/08/04 09:22:25;;;;;;;14.27;2.78;;;;;;;18.70;100.00;101308.34;5024496;28;20029;-71
2023/08/04 09:25:03;;;;;;;4.75;2.42;;;;;;;18.79;100.00;101307.78;5024854;28;20058;-72
2023/08/04 09:27:43;;;;;;;4.22;2.13;;;;;;;18.81;100.00;101312.94;5023537;28;20029;-73
2023/08/04 09:30:10;;;;;;;5.13;1.73;;;;;;;18.77;98.92;101312.59;5024006;28;20036;-72
2023/08/04 09:32:47;;;;;;;6.38;2.50;;;;;;;18.81;100.00;101318.34;5023845;28;20021;-72
2023/08/04 09:35:13;;;;;;;7.95;2.30;;;;;;;18.80;99.34;101314.00;5023822;28;20387;-73
2023/08/04 09:37:40;;;;;;;6.80;2.35;;;;;;;18.86;100.00;101309.50;5021045;28;20030;-72
2023/08/04 09:40:17;;;;;;;4.18;2.97;;;;;;;19.05;100.00;101310.97;5020948;28;20075;-73
2023/08/04 09:42:44;;;;;;;7.45;2.47;;;;;;;19.01;98.20;101315.22;5024084;28;20083;-71
2023/08/04 09:45:18;;;;;;;3.10;1.80;;;;;;;19.11;100.00;101311.88;5024114;28;20021;-72
2023/08/04 09:47:49;;;;;;;4.25;2.35;;;;;;;19.06;97.92;101307.19;5022433;28;20443;-69
2023/08/04 09:50:19;;;;;;;4.80;2.10;;;;;;;19.07;99.85;101308.81;5023442;28;20029;-72
2023/08/04 09:52:45;;;;;;;3.80;2.58;;;;;;;19.15;99.01;101311.16;5022983;28;21227;-70
2023/08/04 09:55:11;;;;;;;5.40;1.95;;;;;;;19.46;98.28;101309.78;5023761;28;20041;-70
2023/08/04 09:57:40;;;;;;;11.52;2.58;;;;;;;19.73;94.74;101311.91;5022885;28;20120;-70
2023/08/04 10:00:09;;;;;;;8.13;2.83;;;;;;;19.65;95.58;101315.00;5024003;28;20468;-70
2023/08/04 10:02:35;;;;;;;5.57;2.47;;;;;;;19.47;97.21;101316.06;5023456;28;20496;-70
2023/08/04 10:05:02;;;;;;;3.90;1.90;;;;;;;19.22;96.40;101319.13;5023556;28;20025;-70
2023/08/04 10:07:29;;;;;;;4.05;2.03;;;;;;;19.03;97.38;101321.22;5024089;28;20033;-70
2023/08/04 10:09:54;;;;;;;4.65;2.28;;;;;;;19.04;98.28;101326.34;5023394;28;20021;-70
2023/08/04 10:12:20;;;;;;;6.90;2.08;;;;;;;19.12;98.20;101311.63;5023752;28;20052;-71
2023/08/04 10:14:46;;;;;;;5.05;2.70;;;;;;;19.23;98.05;101316.19;5023005;28;20053;-71
2023/08/04 10:17:11;;;;;;;8.40;3.35;;;;;;;19.29;98.09;101322.50;5038302;28;20033;-72
2023/08/04 10:19:37;;;;;;;2.45;1.55;;;;;;;19.44;96.34;101321.94;5024068;28;20032;-73
2023/08/04 10:22:11;;;;;;;4.25;2.05;;;;;;;19.79;98.11;101318.22;5022270;28;20041;-73
2023/08/04 10:24:40;;;;;;;7.78;2.47;;;;;;;19.96;89.46;101327.13;5023613;28;20044;-72
2023/08/04 10:27:19;;;;;;;4.25;1.13;;;;;;;19.92;92.56;101324.13;5022991;28;20033;-72
2023/08/04 10:29:45;;;;;;;3.58;1.30;;;;;;;19.72;90.15;101325.69;5023400;28;20049;-72
2023/08/04 10:32:10;;;;;;;2.10;1.30;;;;;;;19.70;90.26;101332.16;5023764;28;20033;-72
2023/08/04 10:34:43;;;;;;;4.32;2.15;;;;;;;19.71;91.64;101327.56;5023357;28;20079;-72
2023/08/04 10:37:12;;;;;;;4.50;1.90;;;;;;;19.75;89.17;101326.00;5023401;28;20056;-73
2023/08/04 10:39:46;;;;;;;5.20;1.77;;;;;;;19.89;92.88;101319.19;5022263;28;20108;-73
2023/08/04 10:42:11;;;;;;;5.22;2.08;;;;;;;19.99;90.90;101326.66;5023381;28;20043;-73
2023/08/04 10:44:50;;;;;;;6.00;2.73;;;;;;;20.02;91.89;101326.16;5026815;28;20132;-73
2023/08/04 10:47:28;;;;;;;5.70;2.80;;;;;;;20.06;91.88;101323.75;5026012;28;20318;-73
2023/08/04 10:49:55;;;;;;;2.28;1.80;;;;;;;20.21;89.17;101331.31;5027560;28;20504;-73
2023/08/04 10:52:21;;;;;;;3.17;2.35;;;;;;;20.47;86.28;101335.19;5027374;28;20026;-72
2023/08/04 10:54:47;;;;;;;4.85;2.63;;;;;;;20.60;89.05;101334.03;5027753;28;20026;-73
2023/08/04 10:57:21;;;;;;;4.25;2.17;;;;;;;20.56;84.89;101344.53;5027575;28;20469;-73
2023/08/04 10:59:47;;;;;;;4.60;1.70;;;;;;;20.43;82.47;101351.09;5027201;28;21259;-72
2023/08/04 11:02:17;;;;;;;5.90;1.88;;;;;;;20.43;85.05;101353.00;5026228;28;20431;-72
2023/08/04 11:04:44;;;;;;;6.70;2.30;;;;;;;20.42;85.79;101349.47;5027112;28;20048;-72
2023/08/04 11:07:10;;;;;;;6.50;2.13;;;;;;;20.39;86.37;101346.47;5027546;28;20080;-72
2023/08/04 11:09:35;;;;;;;3.95;1.80;;;;;;;20.38;88.30;101340.19;5027531;28;20021;-73